createdAt,value
2019-06-26T00:00:11.375Z,42.48
2019-06-26T00:02:40.908Z,41.58
2019-06-26T00:05:10.641Z,39.75
2019-06-26T00:07:40.998Z,41.30
2019-06-26T00:10:10.863Z,38.20
2019-06-26T00:12:40.295Z,40.20
2019-06-26T00:15:10.474Z,39.18
2019-06-26T00:17:39.817Z,39.08
2019-06-26T00:20:10.826Z,38.17
2019-06-26T00:22:40.274Z,37.93
2019-06-26T00:25:09.925Z,39.27
2019-06-26T00:27:40.261Z,35.73
2019-06-26T00:30:09.982Z,40.05
2019-06-26T00:32:39.408Z,35.68
2019-06-26T00:35:08.834Z,38.70
2019-06-26T00:37:38.229Z,33.60
2019-06-26T00:40:07.829Z,36.50
2019-06-26T00:42:37.209Z,37.20
2019-06-26T00:45:07.043Z,35.80
2019-06-26T00:47:36.398Z,34.67
2019-06-26T00:50:07.702Z,33.10
2019-06-26T00:52:38.245Z,36.35
2019-06-26T00:55:07.843Z,34.50
2019-06-26T00:57:37.353Z,35.73
2019-06-26T01:00:09.577Z,33.55
2019-06-26T01:02:39.226Z,35.25
2019-06-26T01:05:11.192Z,34.45
2019-06-26T01:07:41.614Z,35.23
2019-06-26T01:10:13.490Z,32.55
2019-06-26T01:12:43.830Z,34.08
2019-06-26T01:15:13.292Z,33.98
2019-06-26T01:17:42.642Z,34.63
2019-06-26T01:20:12.249Z,36.00
2019-06-26T01:22:41.624Z,36.05
2019-06-26T01:25:12.456Z,35.20
2019-06-26T01:27:41.995Z,34.30
2019-06-26T01:30:11.617Z,36.20
2019-06-26T01:32:40.996Z,36.50
2019-06-26T01:35:10.821Z,35.23
2019-06-26T01:37:40.184Z,35.17
2019-06-26T01:40:09.867Z,33.60
2019-06-26T01:42:39.430Z,33.45
2019-06-26T01:45:09.166Z,37.45
2019-06-26T01:47:38.644Z,34.53
2019-06-26T01:50:08.462Z,36.30
2019-06-26T01:52:37.840Z,37.42
2019-06-26T01:55:07.479Z,36.20
2019-06-26T01:57:37.955Z,38.35
2019-06-26T02:00:09.504Z,35.38
2019-06-26T02:02:38.960Z,37.30
2019-06-26T02:05:08.971Z,38.75
2019-06-26T02:07:38.370Z,38.35
2019-06-26T02:10:08.122Z,39.70
2019-06-26T02:12:37.501Z,41.65
2019-06-26T02:15:07.350Z,37.67
2019-06-26T02:17:36.805Z,37.85
2019-06-26T02:20:08.672Z,38.95
2019-06-26T02:22:38.025Z,39.80
2019-06-26T02:25:07.561Z,38.95
2019-06-26T02:27:36.979Z,37.35
2019-06-26T02:30:08.126Z,37.20
2019-06-26T02:32:37.504Z,38.88
2019-06-26T02:35:10.280Z,35.00
2019-06-26T02:37:39.588Z,36.33
2019-06-26T02:40:09.807Z,35.20
2019-06-26T02:42:39.369Z,38.20
2019-06-26T02:45:09.177Z,37.55
2019-06-26T02:47:38.657Z,37.98
2019-06-26T02:50:09.895Z,38.30
2019-06-26T02:52:39.293Z,39.00
2019-06-26T02:55:09.411Z,38.25
2019-06-26T02:57:38.807Z,39.45
2019-06-26T03:00:08.441Z,39.13
2019-06-26T03:02:37.824Z,38.85
2019-06-26T03:05:07.863Z,38.88
2019-06-26T03:07:37.226Z,36.75
2019-06-26T03:10:10.658Z,38.98
2019-06-26T03:12:40.033Z,37.73
2019-06-26T03:15:10.445Z,36.55
2019-06-26T03:17:54.269Z,38.00
2019-06-26T03:20:11.541Z,37.05
2019-06-26T03:22:40.984Z,37.38
2019-06-26T03:25:10.389Z,38.40
2019-06-26T03:27:39.767Z,36.35
2019-06-26T03:30:09.810Z,36.08
2019-06-26T03:32:39.195Z,37.20
2019-06-26T03:35:08.952Z,36.05
2019-06-26T03:37:38.315Z,37.17
2019-06-26T03:40:08.029Z,38.90
2019-06-26T03:42:37.408Z,39.38
2019-06-26T03:45:21.259Z,39.18
2019-06-26T03:47:38.687Z,38.23
2019-06-26T03:50:09.693Z,39.03
2019-06-26T03:52:39.069Z,39.45
2019-06-26T03:55:08.629Z,38.73
2019-06-26T03:57:38.101Z,39.13
2019-06-26T04:00:08.737Z,39.80
2019-06-26T04:02:38.122Z,42.08
2019-06-26T04:05:08.023Z,44.45
2019-06-26T04:07:37.418Z,42.15
2019-06-26T04:10:07.935Z,43.42
2019-06-26T04:12:37.380Z,42.35
2019-06-26T04:15:07.179Z,43.90
2019-06-26T04:17:36.590Z,43.08
2019-06-26T04:20:07.388Z,44.35
2019-06-26T04:22:36.780Z,44.10
2019-06-26T04:25:06.886Z,44.35
2019-06-26T04:27:36.265Z,43.92
2019-06-26T04:30:09.532Z,45.80
2019-06-26T04:32:40.056Z,43.25
2019-06-26T04:35:09.748Z,48.10
2019-06-26T04:37:40.205Z,47.55
2019-06-26T04:40:11.005Z,45.08
2019-06-26T04:42:40.394Z,51.00
2019-06-26T04:45:10.180Z,48.33
2019-06-26T04:47:39.560Z,48.55
2019-06-26T04:50:09.393Z,51.98
2019-06-26T04:52:38.774Z,52.60
2019-06-26T04:55:08.381Z,52.95
2019-06-26T04:57:38.441Z,51.10
2019-06-26T05:00:08.373Z,48.92
2019-06-26T05:02:37.734Z,48.28
2019-06-26T05:05:08.148Z,49.03
2019-06-26T05:07:38.549Z,47.23
2019-06-26T05:10:09.568Z,51.98
2019-06-26T05:12:39.004Z,48.33
2019-06-26T05:15:09.095Z,50.88
2019-06-26T05:17:39.690Z,50.60
2019-06-26T05:20:09.722Z,52.25
2019-06-26T05:22:39.091Z,50.50
2019-06-26T05:25:09.101Z,50.20
2019-06-26T05:27:38.480Z,52.88
2019-06-26T05:30:08.526Z,52.03
2019-06-26T05:32:37.923Z,54.15
2019-06-26T05:35:08.919Z,47.00
2019-06-26T05:37:38.273Z,50.80
2019-06-26T05:40:11.898Z,50.90
2019-06-26T05:42:41.302Z,50.85
2019-06-26T05:45:11.396Z,49.13
2019-06-26T05:47:41.048Z,48.20
2019-06-26T05:50:11.634Z,50.15
2019-06-26T05:52:43.012Z,51.77
2019-06-26T05:55:14.320Z,52.50
2019-06-26T05:57:43.761Z,50.25
2019-06-26T06:00:13.653Z,50.70
2019-06-26T06:02:43.028Z,50.50
2019-06-26T06:05:12.980Z,52.33
2019-06-26T06:07:42.348Z,51.13
2019-06-26T06:10:12.562Z,52.43
2019-06-26T06:12:41.935Z,50.92
2019-06-26T06:15:13.196Z,49.10
2019-06-26T06:17:42.579Z,50.17
2019-06-26T06:20:12.203Z,52.48
2019-06-26T06:22:41.574Z,50.88
2019-06-26T06:25:11.320Z,50.40
2019-06-26T06:27:40.690Z,50.48
2019-06-26T06:30:10.886Z,49.27
2019-06-26T06:32:40.235Z,52.45
2019-06-26T06:35:09.708Z,53.08
2019-06-26T06:37:39.073Z,51.63
2019-06-26T06:40:09.074Z,55.65
2019-06-26T06:42:38.443Z,53.55
2019-06-26T06:45:09.223Z,51.35
2019-06-26T06:47:38.591Z,52.75
2019-06-26T06:50:08.869Z,51.68
2019-06-26T06:52:38.245Z,52.95
2019-06-26T06:55:08.063Z,50.33
2019-06-26T06:57:37.493Z,51.48
2019-06-26T07:00:08.695Z,51.73
2019-06-26T07:02:38.099Z,50.75
2019-06-26T07:05:08.017Z,50.30
2019-06-26T07:07:37.446Z,47.75
2019-06-26T07:10:07.462Z,47.27
2019-06-26T07:12:36.851Z,46.70
2019-06-26T07:15:09.685Z,49.03
2019-06-26T07:17:39.089Z,48.78
2019-06-26T07:20:08.894Z,46.98
2019-06-26T07:22:38.364Z,49.08
2019-06-26T07:25:08.063Z,45.90
2019-06-26T07:27:37.424Z,41.13
2019-06-26T07:30:08.243Z,47.03
2019-06-26T07:32:37.608Z,42.83
2019-06-26T07:35:07.631Z,42.62
2019-06-26T07:37:36.975Z,44.42
2019-06-26T07:40:08.635Z,42.85
2019-06-26T07:42:37.994Z,42.20
2019-06-26T07:45:08.710Z,45.45
2019-06-26T07:47:43.468Z,43.60
2019-06-26T07:50:09.415Z,43.15
2019-06-26T07:52:38.797Z,43.92
2019-06-26T07:55:11.885Z,40.43
2019-06-26T07:57:40.634Z,42.73
2019-06-26T08:00:11.291Z,39.42
2019-06-26T08:02:40.676Z,39.85
2019-06-26T08:05:10.493Z,42.03
2019-06-26T08:07:39.857Z,39.08
2019-06-26T08:10:10.379Z,42.03
2019-06-26T08:12:39.752Z,44.42
2019-06-26T08:15:09.368Z,40.65
2019-06-26T08:17:38.721Z,42.05
2019-06-26T08:20:09.030Z,43.68
2019-06-26T08:22:38.400Z,45.00
2019-06-26T08:25:08.201Z,42.55
2019-06-26T08:27:37.665Z,45.38
2019-06-26T08:30:09.040Z,47.90
2019-06-26T08:32:38.617Z,44.85
2019-06-26T08:35:08.300Z,42.20
2019-06-26T08:37:37.670Z,44.80
2019-06-26T08:40:08.572Z,43.23
2019-06-26T08:42:37.941Z,48.33
2019-06-26T08:45:09.566Z,48.02
2019-06-26T08:47:38.968Z,44.08
2019-06-26T08:50:09.238Z,47.50
2019-06-26T08:52:38.688Z,48.45
2019-06-26T08:55:08.747Z,47.67
2019-06-26T08:57:38.110Z,41.88
2019-06-26T09:00:10.018Z,45.08
2019-06-26T09:02:39.357Z,43.80
2019-06-26T09:05:08.865Z,42.78
2019-06-26T09:07:38.243Z,44.90
2019-06-26T09:10:08.979Z,43.08
2019-06-26T09:12:38.323Z,45.25
2019-06-26T09:15:09.100Z,39.03
2019-06-26T09:17:38.477Z,45.78
2019-06-26T09:20:09.661Z,41.58
2019-06-26T09:22:39.040Z,40.70
2019-06-26T09:25:20.936Z,45.08
2019-06-26T09:27:40.034Z,44.42
2019-06-26T09:30:10.046Z,45.75
2019-06-26T09:32:39.417Z,45.45
2019-06-26T09:35:08.920Z,47.58
2019-06-26T09:37:38.366Z,45.28
2019-06-26T09:40:08.054Z,46.30
2019-06-26T09:42:37.450Z,43.58
2019-06-26T09:45:08.870Z,48.50
2019-06-26T09:47:38.226Z,45.75
2019-06-26T09:50:09.106Z,45.23
2019-06-26T09:52:38.463Z,47.08
2019-06-26T09:55:09.652Z,47.98
2019-06-26T09:57:39.090Z,45.67
2019-06-26T10:00:11.380Z,45.05
2019-06-26T10:02:40.831Z,48.52
2019-06-26T10:05:10.825Z,42.33
2019-06-26T10:07:40.266Z,43.87
2019-06-26T10:10:10.068Z,45.28
2019-06-26T10:12:39.449Z,40.98
2019-06-26T10:15:09.353Z,44.20
2019-06-26T10:17:38.921Z,43.25
2019-06-26T10:20:09.014Z,43.92
2019-06-26T10:22:38.379Z,42.05
2019-06-26T10:25:11.256Z,41.55
2019-06-26T10:27:38.988Z,43.13
2019-06-26T10:30:08.840Z,43.38
2019-06-26T10:32:38.230Z,42.43
2019-06-26T10:35:09.444Z,42.33
2019-06-26T10:37:38.791Z,48.42
2019-06-26T10:40:08.292Z,41.10
2019-06-26T10:42:37.660Z,43.10
2019-06-26T10:45:10.293Z,47.33
2019-06-26T10:47:40.207Z,40.08
2019-06-26T10:50:11.885Z,43.20
2019-06-26T10:52:41.272Z,41.83
2019-06-26T10:55:11.100Z,41.95
2019-06-26T10:57:40.472Z,42.33
2019-06-26T11:00:11.926Z,47.85
2019-06-26T11:02:41.431Z,44.18
2019-06-26T11:05:11.550Z,47.85
2019-06-26T11:07:40.962Z,53.87
2019-06-26T11:10:10.840Z,47.10
2019-06-26T11:12:40.233Z,46.53
2019-06-26T11:15:10.315Z,45.90
2019-06-26T11:17:39.869Z,42.38
2019-06-26T11:20:10.634Z,44.63
2019-06-26T11:22:40.031Z,44.58
2019-06-26T11:25:09.837Z,47.13
2019-06-26T11:27:39.207Z,49.10
2019-06-26T11:30:10.524Z,47.88
2019-06-26T11:32:39.885Z,43.87
2019-06-26T11:35:09.545Z,45.67
2019-06-26T11:37:40.146Z,44.45
2019-06-26T11:40:10.237Z,43.75
2019-06-26T11:42:39.584Z,43.83
2019-06-26T11:45:09.602Z,49.05
2019-06-26T11:47:39.103Z,45.67
2019-06-26T11:50:09.431Z,44.95
2019-06-26T11:52:38.971Z,47.03
2019-06-26T11:55:09.597Z,39.45
2019-06-26T11:57:38.967Z,47.65
2019-06-26T12:00:10.661Z,46.90
2019-06-26T12:02:40.114Z,41.10
2019-06-26T12:05:10.157Z,39.03
2019-06-26T12:07:39.536Z,37.65
2019-06-26T12:10:09.354Z,34.83
2019-06-26T12:12:38.747Z,39.92
2019-06-26T12:15:09.948Z,36.80
2019-06-26T12:17:39.364Z,42.88
2019-06-26T12:20:18.570Z,41.83
2019-06-26T12:22:40.337Z,42.30
2019-06-26T12:25:10.440Z,40.63
2019-06-26T12:27:39.809Z,31.50
2019-06-26T12:30:09.633Z,35.35
2019-06-26T12:32:42.131Z,33.83
2019-06-26T12:35:10.364Z,31.37
2019-06-26T12:37:39.728Z,33.10
2019-06-26T12:40:09.660Z,31.90
2019-06-26T12:42:39.059Z,33.95
2019-06-26T12:45:09.071Z,32.78
2019-06-26T12:47:38.455Z,30.15
2019-06-26T12:50:08.659Z,35.20
2019-06-26T12:52:38.106Z,31.30
2019-06-26T12:55:08.432Z,34.13
2019-06-26T12:57:37.828Z,32.93
2019-06-26T13:00:11.076Z,34.15
2019-06-26T13:02:40.601Z,32.48
2019-06-26T13:05:10.133Z,33.78
2019-06-26T13:07:39.657Z,34.63
2019-06-26T13:10:09.665Z,27.50
2019-06-26T13:12:39.046Z,24.87
2019-06-26T13:15:09.577Z,29.92
2019-06-26T13:17:38.933Z,35.35
2019-06-26T13:20:10.422Z,35.92
2019-06-26T13:22:40.032Z,27.15
2019-06-26T13:25:09.716Z,31.77
2019-06-26T13:27:39.076Z,27.15
2019-06-26T13:30:08.990Z,30.00
2019-06-26T13:32:38.340Z,29.60
2019-06-26T13:35:08.047Z,28.57
2019-06-26T13:37:37.457Z,26.10
2019-06-26T13:40:09.903Z,27.93
2019-06-26T13:42:39.285Z,29.98
2019-06-26T13:45:08.883Z,26.95
2019-06-26T13:47:38.278Z,25.00
2019-06-26T13:50:07.894Z,30.15
2019-06-26T13:52:38.240Z,29.95
2019-06-26T13:55:07.837Z,29.25
2019-06-26T13:57:37.291Z,29.15
2019-06-26T14:00:08.220Z,23.32
2019-06-26T14:02:37.624Z,24.75
2019-06-26T14:05:10.668Z,21.40
2019-06-26T14:07:40.030Z,19.82
2019-06-26T14:10:10.763Z,24.63
2019-06-26T14:12:40.176Z,25.52
2019-06-26T14:15:10.381Z,27.13
2019-06-26T14:17:39.782Z,22.62
2019-06-26T14:20:10.850Z,21.95
2019-06-26T14:22:40.268Z,22.42
2019-06-26T14:25:10.268Z,19.62
2019-06-26T14:27:40.687Z,17.17
2019-06-26T14:30:10.267Z,17.50
2019-06-26T14:32:39.653Z,18.25
2019-06-26T14:35:09.307Z,17.62
2019-06-26T14:37:38.689Z,16.37
2019-06-26T14:40:08.930Z,16.67
2019-06-26T14:42:38.295Z,17.67
2019-06-26T14:45:09.956Z,14.00
2019-06-26T14:47:39.390Z,16.90
2019-06-26T14:50:09.000Z,15.53
2019-06-26T14:52:38.408Z,15.68
2019-06-26T14:55:09.186Z,17.17
2019-06-26T14:57:38.541Z,16.97
2019-06-26T15:00:09.151Z,15.75
2019-06-26T15:02:38.525Z,18.02
2019-06-26T15:05:08.236Z,13.95
2019-06-26T15:07:37.669Z,14.05
2019-06-26T15:10:08.186Z,12.58
2019-06-26T15:12:37.618Z,14.10
2019-06-26T15:15:07.825Z,12.20
2019-06-26T15:17:37.773Z,12.50
2019-06-26T15:20:08.563Z,12.10
2019-06-26T15:22:37.943Z,12.60
2019-06-26T15:25:07.783Z,12.13
2019-06-26T15:27:37.200Z,12.45
2019-06-26T15:30:08.484Z,10.70
2019-06-26T15:32:37.855Z,10.85
2019-06-26T15:35:07.983Z,10.65
2019-06-26T15:37:37.410Z,10.10
2019-06-26T15:40:07.653Z,10.18
2019-06-26T15:42:37.057Z,11.18
2019-06-26T15:45:08.270Z,10.38
2019-06-26T15:47:37.669Z,10.53
2019-06-26T15:50:11.001Z,9.65
2019-06-26T15:52:40.542Z,9.83
2019-06-26T15:55:10.052Z,9.98
2019-06-26T15:57:39.462Z,10.20
2019-06-26T16:00:10.862Z,9.73
2019-06-26T16:02:40.250Z,9.70
2019-06-26T16:05:09.775Z,9.35
2019-06-26T16:07:39.133Z,8.98
2019-06-26T16:10:08.936Z,9.90
2019-06-26T16:12:38.304Z,10.93
2019-06-26T16:15:08.466Z,10.08
2019-06-26T16:17:39.516Z,10.40
2019-06-26T16:20:09.201Z,10.75
2019-06-26T16:22:38.580Z,9.70
2019-06-26T16:25:08.319Z,9.30
2019-06-26T16:27:37.666Z,10.18
2019-06-26T16:30:07.405Z,10.60
2019-06-26T16:32:36.797Z,9.18
2019-06-26T16:35:07.122Z,10.32
2019-06-26T16:37:36.515Z,10.72
2019-06-26T16:40:07.055Z,9.25
2019-06-26T16:42:36.438Z,10.35
2019-06-26T16:45:07.077Z,11.43
2019-06-26T16:47:36.458Z,10.25
2019-06-26T16:50:08.337Z,10.55
2019-06-26T16:52:48.521Z,11.08
2019-06-26T16:55:09.991Z,10.72
2019-06-26T16:57:39.332Z,10.60
2019-06-26T17:00:10.348Z,10.10
2019-06-26T17:02:40.876Z,11.43
2019-06-26T17:05:10.383Z,10.38
2019-06-26T17:07:39.770Z,9.85
2019-06-26T17:10:09.482Z,9.58
2019-06-26T17:12:38.868Z,9.88
2019-06-26T17:15:09.178Z,9.63
2019-06-26T17:17:38.556Z,8.60
2019-06-26T17:20:08.263Z,8.70
2019-06-26T17:22:37.714Z,8.45
2019-06-26T17:25:07.433Z,8.08
2019-06-26T17:27:37.810Z,8.78
2019-06-26T17:30:08.123Z,8.38
2019-06-26T17:32:37.478Z,8.53
2019-06-26T17:35:07.462Z,8.35
2019-06-26T17:37:36.838Z,8.20
2019-06-26T17:40:07.311Z,8.50
2019-06-26T17:42:36.678Z,8.33
2019-06-26T17:47:54.414Z,9.03
2019-06-26T17:50:23.783Z,9.33
2019-06-26T17:52:53.153Z,8.85
2019-06-26T17:55:22.517Z,8.35
2019-06-26T17:57:51.861Z,9.45
2019-06-26T18:00:24.263Z,8.55
2019-06-26T18:02:53.634Z,9.63
2019-06-26T18:05:23.009Z,8.58
2019-06-26T18:07:52.362Z,8.70
2019-06-26T18:10:21.748Z,8.60
2019-06-26T18:12:51.093Z,8.75
2019-06-26T18:15:20.742Z,8.53
2019-06-26T18:17:50.097Z,8.13
2019-06-26T18:20:19.576Z,8.33
2019-06-26T18:23:05.796Z,7.55
2019-06-26T18:25:21.714Z,7.35
2019-06-26T18:27:51.063Z,8.05
2019-06-26T18:30:22.781Z,7.65
2019-06-26T18:32:51.831Z,7.40
2019-06-26T18:35:21.189Z,7.78
2019-06-26T18:37:50.571Z,7.28
2019-06-26T18:40:20.018Z,7.00
2019-06-26T18:42:49.375Z,7.55
2019-06-26T18:45:18.788Z,7.60
2019-06-26T18:47:48.182Z,7.70
2019-06-26T18:50:17.608Z,7.58
2019-06-26T18:52:46.979Z,7.53
2019-06-26T18:55:16.402Z,8.18
2019-06-26T18:57:45.754Z,7.78
2019-06-26T19:00:15.770Z,7.55
2019-06-26T19:02:45.140Z,7.50
2019-06-26T19:05:14.700Z,7.75
2019-06-26T19:07:44.030Z,9.65
2019-06-26T19:10:14.719Z,8.73
2019-06-26T19:12:44.098Z,9.98
2019-06-26T19:15:13.750Z,9.90
2019-06-26T19:17:43.117Z,9.90
2019-06-26T19:20:12.903Z,8.18
2019-06-26T19:22:42.312Z,8.70
2019-06-26T19:25:11.820Z,8.08
2019-06-26T19:27:41.201Z,10.23
2019-06-26T19:30:12.700Z,7.75
2019-06-26T19:32:42.101Z,240.37
2019-06-26T19:35:19.997Z,28.45
2019-06-26T19:37:42.985Z,6.92
2019-06-26T19:40:12.709Z,148.30
2019-06-26T19:42:42.137Z,7.15
2019-06-26T19:45:13.354Z,6.60
2019-06-26T19:47:42.733Z,6.47
2019-06-26T19:50:12.545Z,6.25
2019-06-26T19:52:41.935Z,6.28
2019-06-26T19:55:11.412Z,6.42
2019-06-26T19:57:40.759Z,5.75
2019-06-26T20:00:11.868Z,5.95
2019-06-26T20:02:41.220Z,5.67
2019-06-26T20:05:12.179Z,5.10
2019-06-26T20:07:41.625Z,5.03
2019-06-26T20:10:12.772Z,5.37
2019-06-26T20:12:42.304Z,5.37
2019-06-26T20:15:12.104Z,4.42
2019-06-26T20:17:41.465Z,4.97
2019-06-26T20:20:11.010Z,4.78
2019-06-26T20:22:40.366Z,4.70
2019-06-26T20:25:11.073Z,7.70
2019-06-26T20:27:40.537Z,4.40
2019-06-26T20:30:10.539Z,4.58
2019-06-26T20:32:40.928Z,3.95
2019-06-26T20:35:10.321Z,4.25
2019-06-26T20:37:39.698Z,3.85
2019-06-26T20:40:09.420Z,4.12
2019-06-26T20:42:38.773Z,4.15
2019-06-26T20:45:10.055Z,3.60
2019-06-26T20:47:39.476Z,3.45
2019-06-26T20:50:08.957Z,3.10
2019-06-26T20:52:38.335Z,71.25
2019-06-26T20:55:09.018Z,20.80
2019-06-26T20:57:38.365Z,3.10
2019-06-26T21:00:08.761Z,3.10
2019-06-26T21:02:39.714Z,3.05
2019-06-26T21:05:09.329Z,2.60
2019-06-26T21:07:38.722Z,2.62
2019-06-26T21:10:09.403Z,3.30
2019-06-26T21:12:38.753Z,2.70
2019-06-26T21:15:08.576Z,3.00
2019-06-26T21:17:37.949Z,2.75
2019-06-26T21:20:07.444Z,2.80
2019-06-26T21:22:36.821Z,2.47
2019-06-26T21:25:18.299Z,2.90
2019-06-26T21:27:40.203Z,2.65
2019-06-26T21:30:10.044Z,2.87
2019-06-26T21:32:39.367Z,2.40
2019-06-26T21:35:08.814Z,3.08
2019-06-26T21:37:38.267Z,2.75
2019-06-26T21:40:08.072Z,2.95
2019-06-26T21:42:37.422Z,2.83
2019-06-26T21:45:07.335Z,2.70
2019-06-26T21:47:36.691Z,2.85
2019-06-26T21:50:07.679Z,2.65
2019-06-26T21:52:38.126Z,2.87
2019-06-26T21:55:07.829Z,2.70
2019-06-26T21:57:54.700Z,2.72
2019-06-26T22:00:41.964Z,2.92
2019-06-26T22:03:29.886Z,2.47
2019-06-26T22:06:00.926Z,3.08
2019-06-26T22:08:34.897Z,2.87
2019-06-26T22:11:05.985Z,2.90
2019-06-26T22:13:35.327Z,2.98
2019-06-26T22:16:04.789Z,3.08
2019-06-26T22:18:34.200Z,3.40
2019-06-26T22:21:03.742Z,2.92
2019-06-26T22:23:33.116Z,2.87
2019-06-26T22:26:02.485Z,3.33
2019-06-26T22:28:31.828Z,3.72
2019-06-26T22:31:01.268Z,3.27
2019-06-26T22:33:30.610Z,3.10
2019-06-26T22:36:00.614Z,3.37
2019-06-26T22:38:29.996Z,3.55
2019-06-26T22:40:59.348Z,3.30
2019-06-26T22:43:28.744Z,3.15
2019-06-26T22:45:58.150Z,2.95
2019-06-26T22:48:27.484Z,2.92
2019-06-26T22:50:56.853Z,3.60
2019-06-26T22:53:26.235Z,3.22
2019-06-26T22:56:06.976Z,3.33
2019-06-26T22:58:26.703Z,3.52
2019-06-26T23:00:56.064Z,3.40
2019-06-26T23:03:25.686Z,3.15
2019-06-26T23:05:55.048Z,2.87
2019-06-26T23:08:24.390Z,3.60
2019-06-26T23:10:53.838Z,3.22
2019-06-26T23:13:23.204Z,3.35
2019-06-26T23:15:52.602Z,2.85
2019-06-26T23:18:21.966Z,2.87
2019-06-26T23:20:51.340Z,2.85
2019-06-26T23:23:20.726Z,2.60
2019-06-26T23:25:50.110Z,2.98
2019-06-26T23:28:19.462Z,3.22
2019-06-26T23:30:48.825Z,2.62
2019-06-26T23:33:18.151Z,2.58
2019-06-26T23:35:47.557Z,3.20
2019-06-26T23:38:16.907Z,3.12
2019-06-26T23:40:47.255Z,2.95
2019-06-26T23:43:17.682Z,2.95
2019-06-26T23:45:47.064Z,3.55
2019-06-26T23:48:16.420Z,3.47
2019-06-26T23:50:45.824Z,2.80
2019-06-26T23:53:15.188Z,3.65
2019-06-26T23:55:44.576Z,2.83
2019-06-26T23:58:13.942Z,3.12
